Time;durP1;ratioP1;P1;durP2;ratioP2;P2;SDS_P1;SDS_P2;PMS_P1;PMS_P2;Temp;Humidity;BMP_temperature;BMP_pressure;BME280_temperature;BME280_humidity;BME280_pressure;Samples;Min_cycle;Max_cycle;Signal;HPM_P1;HPM_P2
2021/06/28 00:00:09;;;;;;;9.10;6.75;;;16.20;99.90;;;;;;5080769;28;20032;-64
2021/06/28 00:02:34;;;;;;;9.65;6.50;;;16.20;99.90;;;;;;5080770;28;20072;-64
2021/06/28 00:05:00;;;;;;;7.32;6.03;;;16.10;99.90;;;;;;5077506;28;20130;-64
2021/06/28 00:07:26;;;;;;;7.97;6.78;;;16.20;99.90;;;;;;5080526;28;20047;-64
2021/06/28 00:09:51;;;;;;;8.35;7.07;;;16.10;99.90;;;;;;5081012;28;20090;-64
2021/06/28 00:12:17;;;;;;;9.63;7.00;;;16.10;99.90;;;;;;5082628;28;20036;-64
2021/06/28 00:14:43;;;;;;;8.18;6.80;;;16.10;99.90;;;;;;5078580;28;20044;-64
2021/06/28 00:17:08;;;;;;;10.82;7.47;;;16.10;99.90;;;;;;5083265;28;20121;-64
2021/06/28 00:19:34;;;;;;;9.30;6.78;;;16.10;99.90;;;;;;5078681;28;20040;-64
2021/06/28 00:22:00;;;;;;;7.07;6.38;;;16.10;99.90;;;;;;5084721;28;20044;-64
2021/06/28 00:24:26;;;;;;;11.23;6.32;;;16.00;99.90;;;;;;5084805;28;20037;-64
2021/06/28 00:26:52;;;;;;;11.70;6.78;;;16.10;99.90;;;;;;5080341;28;20032;-64
2021/06/28 00:29:18;;;;;;;9.88;6.82;;;16.10;99.90;;;;;;5082167;28;20554;-64
2021/06/28 00:31:43;;;;;;;7.85;6.60;;;16.10;99.90;;;;;;5085126;28;20136;-64
2021/06/28 00:34:09;;;;;;;11.63;7.55;;;16.10;99.90;;;;;;5082030;28;20474;-64
2021/06/28 00:36:35;;;;;;;7.78;6.43;;;16.10;99.90;;;;;;5081853;28;20035;-64
2021/06/28 00:39:01;;;;;;;8.77;7.78;;;16.00;99.90;;;;;;5083671;28;20660;-64
2021/06/28 00:41:27;;;;;;;12.50;6.78;;;16.00;99.90;;;;;;5082227;28;20040;-64
2021/06/28 00:43:52;;;;;;;11.88;7.38;;;16.00;99.90;;;;;;5086161;28;20136;-64
2021/06/28 00:46:18;;;;;;;10.02;7.00;;;16.00;99.90;;;;;;5085255;28;20043;-64
2021/06/28 00:48:44;;;;;;;11.38;7.65;;;16.00;99.90;;;;;;5085204;28;20028;-64
2021/06/28 00:51:10;;;;;;;9.43;8.10;;;16.00;99.90;;;;;;5081236;28;20078;-64
2021/06/28 00:53:35;;;;;;;16.30;8.50;;;15.90;99.90;;;;;;5083669;28;20043;-64
2021/06/28 00:56:12;;;;;;;13.38;8.98;;;15.90;99.90;;;;;;5084883;28;20092;-64
2021/06/28 00:58:39;;;;;;;11.57;8.35;;;15.90;99.90;;;;;;5086453;28;20475;-64
2021/06/28 01:01:05;;;;;;;11.27;8.60;;;15.80;99.90;;;;;;5081961;28;20068;-64
2021/06/28 01:03:34;;;;;;;15.77;8.70;;;15.80;99.90;;;;;;5082380;28;20044;-64
2021/06/28 01:06:00;;;;;;;10.63;8.38;;;15.80;99.90;;;;;;5085359;28;20035;-64
2021/06/28 01:08:26;;;;;;;13.30;8.80;;;15.70;99.90;;;;;;5083266;28;20043;-64
2021/06/28 01:10:52;;;;;;;14.77;9.32;;;15.70;99.90;;;;;;5083912;28;20135;-64
2021/06/28 01:13:18;;;;;;;10.32;8.60;;;15.60;99.90;;;;;;5083491;28;20138;-64
2021/06/28 01:15:44;;;;;;;13.73;8.90;;;15.70;99.90;;;;;;5083101;28;20953;-64
2021/06/28 01:18:10;;;;;;;11.40;9.05;;;15.60;99.90;;;;;;5083717;28;20497;-64
2021/06/28 01:20:37;;;;;;;10.80;8.27;;;15.60;99.90;;;;;;5083155;28;20398;-64
2021/06/28 01:23:25;;;;;;;10.18;8.18;;;15.60;99.90;;;;;;5082717;28;20401;-64
2021/06/28 01:26:06;;;;;;;11.65;8.00;;;15.60;99.90;;;;;;5084029;28;20040;-64
2021/06/28 01:28:32;;;;;;;9.93;8.05;;;15.60;99.90;;;;;;5083904;28;20385;-64
2021/06/28 01:30:59;;;;;;;11.15;8.75;;;15.60;99.90;;;;;;5081944;28;20067;-64
2021/06/28 01:33:26;;;;;;;12.40;8.35;;;15.60;99.90;;;;;;5084789;28;20040;-64
2021/06/28 01:35:52;;;;;;;8.43;7.63;;;15.60;99.90;;;;;;5080036;28;20044;-64
2021/06/28 01:38:18;;;;;;;8.23;7.35;;;15.50;99.90;;;;;;5084530;28;20393;-64
2021/06/28 01:40:44;;;;;;;13.30;7.93;;;15.60;99.90;;;;;;5078942;28;20045;-64
2021/06/28 01:43:11;;;;;;;11.63;7.15;;;15.60;99.90;;;;;;5083684;28;20131;-64
2021/06/28 01:45:37;;;;;;;10.93;7.40;;;15.60;99.90;;;;;;5080463;28;20136;-64
2021/06/28 01:48:03;;;;;;;9.18;7.43;;;15.60;99.90;;;;;;5098344;28;20746;-64
2021/06/28 01:50:32;;;;;;;11.23;7.57;;;15.60;99.90;;;;;;5084570;28;20036;-64
2021/06/28 01:52:59;;;;;;;11.75;7.43;;;15.60;99.90;;;;;;5081325;28;20044;-64
2021/06/28 01:55:25;;;;;;;12.98;8.63;;;15.60;99.90;;;;;;5085570;28;20036;-64
2021/06/28 01:57:53;;;;;;;14.15;8.85;;;15.60;99.90;;;;;;5081391;28;20040;-64
2021/06/28 02:00:29;;;;;;;10.23;8.07;;;15.60;99.90;;;;;;5082388;28;20516;-64
2021/06/28 02:03:11;;;;;;;12.52;7.95;;;15.60;99.90;;;;;;5084971;28;20574;-64
2021/06/28 02:05:49;;;;;;;9.77;8.77;;;15.60;99.90;;;;;;5083969;28;20085;-64
2021/06/28 02:08:17;;;;;;;11.75;8.45;;;15.60;99.90;;;;;;5081425;28;20032;-64
2021/06/28 02:10:46;;;;;;;11.43;7.82;;;15.60;99.90;;;;;;5080382;28;20525;-64
2021/06/28 02:13:12;;;;;;;13.52;7.47;;;15.70;99.90;;;;;;5081497;28;20043;-64
2021/06/28 02:15:37;;;;;;;13.50;8.70;;;15.70;99.90;;;;;;5076326;28;20040;-64
2021/06/28 02:18:06;;;;;;;10.57;8.45;;;15.60;99.90;;;;;;5077204;28;20140;-64
2021/06/28 02:20:31;;;;;;;10.48;7.35;;;15.60;99.90;;;;;;5077744;28;20040;-64
2021/06/28 02:23:22;;;;;;;9.65;7.72;;;15.60;99.90;;;;;;5080084;28;20444;-64
2021/06/28 02:25:56;;;;;;;12.68;8.82;;;15.60;99.90;;;;;;5080515;28;20036;-64
2021/06/28 02:28:27;;;;;;;10.93;8.50;;;15.60;99.90;;;;;;5081683;28;20043;-64
2021/06/28 02:30:55;;;;;;;13.63;8.75;;;15.60;99.90;;;;;;5081509;28;20044;-64
2021/06/28 02:33:21;;;;;;;13.38;9.13;;;15.60;99.90;;;;;;5087088;28;20028;-64
2021/06/28 02:35:48;;;;;;;15.95;9.00;;;15.60;99.90;;;;;;5088278;28;20500;-64
2021/06/28 02:38:14;;;;;;;8.88;7.95;;;15.60;99.90;;;;;;5085811;28;20039;-64
2021/06/28 02:40:40;;;;;;;9.75;8.43;;;15.60;99.90;;;;;;5085112;28;20036;-64
2021/06/28 02:43:06;;;;;;;13.35;9.32;;;15.70;99.90;;;;;;5082542;28;20130;-63
2021/06/28 02:45:32;;;;;;;12.98;8.88;;;15.70;99.90;;;;;;5081166;28;20466;-64
2021/06/28 02:47:58;;;;;;;10.75;9.07;;;15.70;99.90;;;;;;5085979;28;20032;-64
2021/06/28 02:50:23;;;;;;;12.10;8.93;;;15.70;99.90;;;;;;5085921;28;20110;-64
2021/06/28 02:52:49;;;;;;;13.23;8.82;;;15.80;99.90;;;;;;5087820;28;20051;-64
2021/06/28 02:55:15;;;;;;;11.88;8.55;;;15.80;99.90;;;;;;5084626;28;20032;-64
2021/06/28 02:57:41;;;;;;;10.80;9.18;;;15.70;99.90;;;;;;5083896;28;20040;-64
2021/06/28 03:00:16;;;;;;;11.25;9.05;;;15.70;99.90;;;;;;5082072;28;20122;-64
2021/06/28 03:02:43;;;;;;;10.90;8.45;;;15.80;99.90;;;;;;5082995;28;20040;-64
2021/06/28 03:05:10;;;;;;;11.60;8.88;;;15.80;99.90;;;;;;5084848;28;20047;-64
2021/06/28 03:07:36;;;;;;;12.27;9.52;;;15.80;99.90;;;;;;5084826;28;20146;-64
2021/06/28 03:10:05;;;;;;;10.48;8.98;;;15.80;99.90;;;;;;5086019;28;20123;-64
2021/06/28 03:12:31;;;;;;;13.35;9.05;;;15.80;99.90;;;;;;5085465;28;20121;-64
2021/06/28 03:14:57;;;;;;;14.35;9.38;;;15.90;99.90;;;;;;5089232;28;20039;-64
2021/06/28 03:17:23;;;;;;;14.35;9.75;;;15.90;99.90;;;;;;5084259;28;20063;-64
2021/06/28 03:19:48;;;;;;;12.48;9.10;;;15.80;99.90;;;;;;5083401;28;20051;-64
2021/06/28 03:22:16;;;;;;;11.88;9.80;;;15.80;99.90;;;;;;5088062;28;20044;-64
2021/06/28 03:24:43;;;;;;;14.55;10.25;;;15.80;99.90;;;;;;5087839;28;20040;-64
2021/06/28 03:27:09;;;;;;;10.50;9.15;;;15.80;99.90;;;;;;5081822;28;20039;-64
2021/06/28 03:29:35;;;;;;;11.60;9.82;;;15.80;99.90;;;;;;5086932;28;20031;-64
2021/06/28 03:32:00;;;;;;;14.00;10.10;;;15.90;99.90;;;;;;5085825;28;20557;-64
2021/06/28 03:34:26;;;;;;;11.32;8.55;;;15.90;99.90;;;;;;5086491;28;20036;-64
2021/06/28 03:36:52;;;;;;;12.00;9.30;;;15.90;99.90;;;;;;5085687;28;20409;-64
2021/06/28 03:39:17;;;;;;;14.20;10.23;;;16.00;99.90;;;;;;5088726;28;20470;-64
2021/06/28 03:41:43;;;;;;;11.82;10.35;;;16.00;99.90;;;;;;5081257;28;20039;-64
2021/06/28 03:44:09;;;;;;;11.02;8.88;;;16.00;99.90;;;;;;5088304;28;20093;-64
2021/06/28 03:46:34;;;;;;;12.52;8.98;;;16.00;99.90;;;;;;5087751;28;20039;-64
2021/06/28 03:49:00;;;;;;;15.57;9.90;;;16.00;99.90;;;;;;5087140;28;20130;-64
2021/06/28 03:51:26;;;;;;;13.57;9.02;;;16.00;99.90;;;;;;5085567;28;20074;-64
2021/06/28 03:53:52;;;;;;;11.50;10.18;;;16.00;99.90;;;;;;5085661;28;20051;-64
2021/06/28 03:56:18;;;;;;;13.00;9.38;;;16.10;99.90;;;;;;5084798;28;20040;-64
2021/06/28 03:58:45;;;;;;;12.48;9.30;;;16.10;99.90;;;;;;5087439;28;20048;-64
2021/06/28 04:01:11;;;;;;;16.58;10.15;;;16.10;99.90;;;;;;5087191;28;20036;-64
2021/06/28 04:03:38;;;;;;;11.65;8.70;;;16.10;99.90;;;;;;5084039;28;20036;-64
2021/06/28 04:06:06;;;;;;;9.57;8.40;;;16.10;99.90;;;;;;5085902;28;20040;-64
2021/06/28 04:08:33;;;;;;;14.05;9.02;;;16.10;99.90;;;;;;5085556;28;20048;-64
2021/06/28 04:10:59;;;;;;;9.77;8.55;;;16.10;99.90;;;;;;5090419;28;20044;-64
2021/06/28 04:13:25;;;;;;;12.80;9.07;;;16.10;99.90;;;;;;5086792;28;20383;-64
2021/06/28 04:15:50;;;;;;;10.13;8.77;;;16.20;99.90;;;;;;5085058;28;20555;-64
2021/06/28 04:18:16;;;;;;;14.35;9.07;;;16.20;99.90;;;;;;5085741;28;20127;-64
2021/06/28 04:20:42;;;;;;;15.73;8.77;;;16.20;99.90;;;;;;5085293;28;20493;-64
2021/06/28 04:23:08;;;;;;;10.18;8.55;;;16.30;99.90;;;;;;5083311;28;20036;-64
2021/06/28 04:25:35;;;;;;;10.55;8.15;;;16.20;99.90;;;;;;5084612;28;20050;-64
2021/06/28 04:28:01;;;;;;;11.55;9.35;;;16.20;99.90;;;;;;5087766;28;20051;-64
2021/06/28 04:30:27;;;;;;;12.27;8.65;;;16.20;99.90;;;;;;5083988;28;20123;-64
2021/06/28 04:32:53;;;;;;;11.38;9.25;;;16.20;99.90;;;;;;5084987;28;20450;-64
2021/06/28 04:35:29;;;;;;;9.82;8.70;;;16.20;99.90;;;;;;5084546;28;20111;-64
2021/06/28 04:37:57;;;;;;;10.55;9.45;;;16.20;99.90;;;;;;5077590;28;20081;-64
2021/06/28 04:40:25;;;;;;;11.13;8.48;;;16.20;99.90;;;;;;5078653;28;20047;-64
2021/06/28 04:42:52;;;;;;;13.30;8.88;;;16.20;99.90;;;;;;5076784;28;20041;-64
2021/06/28 04:45:19;;;;;;;10.57;8.48;;;16.20;99.90;;;;;;5078119;28;20119;-64
2021/06/28 04:47:45;;;;;;;12.32;8.85;;;16.20;99.90;;;;;;5077679;28;20035;-64
2021/06/28 04:50:13;;;;;;;13.43;9.27;;;16.20;99.90;;;;;;5085484;28;20539;-64
2021/06/28 04:52:40;;;;;;;12.25;9.43;;;16.20;99.90;;;;;;5086859;28;20503;-64
2021/06/28 04:55:08;;;;;;;12.85;9.23;;;16.20;99.90;;;;;;5085228;28;20035;-64
2021/06/28 04:57:35;;;;;;;11.65;8.98;;;16.20;99.90;;;;;;5085540;28;20036;-64
2021/06/28 05:00:02;;;;;;;10.43;9.43;;;16.20;99.90;;;;;;5082953;28;20467;-64
2021/06/28 05:02:28;;;;;;;14.18;9.13;;;16.20;99.90;;;;;;5083775;28;20052;-64
2021/06/28 05:04:54;;;;;;;11.68;8.52;;;16.20;99.90;;;;;;5079850;28;20521;-64
2021/06/28 05:07:19;;;;;;;12.55;9.00;;;16.20;99.90;;;;;;5090607;28;20047;-64
2021/06/28 05:09:45;;;;;;;10.93;7.85;;;16.20;99.90;;;;;;5088405;28;20496;-64
2021/06/28 05:12:12;;;;;;;12.07;9.45;;;16.20;99.90;;;;;;5091501;28;20047;-64
2021/06/28 05:14:39;;;;;;;9.40;8.35;;;16.20;99.90;;;;;;5091092;28;20032;-64
2021/06/28 05:17:07;;;;;;;9.05;8.18;;;16.20;99.90;;;;;;5089217;28;20051;-63
2021/06/28 05:19:32;;;;;;;10.70;8.52;;;16.20;99.90;;;;;;5086182;28;20043;-63
2021/06/28 05:21:58;;;;;;;10.32;7.75;;;16.20;99.90;;;;;;5090487;28;20405;-63
2021/06/28 05:24:24;;;;;;;10.98;8.80;;;16.30;99.90;;;;;;5089731;28;20478;-63
2021/06/28 05:26:50;;;;;;;9.90;8.77;;;16.30;99.90;;;;;;5087199;28;20085;-63
2021/06/28 05:29:16;;;;;;;11.35;9.30;;;16.40;99.90;;;;;;5088132;28;20032;-63
2021/06/28 05:31:42;;;;;;;12.25;9.63;;;16.40;99.90;;;;;;5086279;28;20359;-63
2021/06/28 05:34:08;;;;;;;11.48;9.68;;;16.40;99.90;;;;;;5090795;28;20046;-63
2021/06/28 05:36:34;;;;;;;10.50;9.40;;;16.50;99.90;;;;;;5089798;28;20081;-63
2021/06/28 05:39:00;;;;;;;9.30;8.18;;;16.50;99.90;;;;;;5091352;28;20047;-63
2021/06/28 05:41:26;;;;;;;13.82;8.70;;;16.60;99.90;;;;;;5090999;28;20039;-63
2021/06/28 05:43:52;;;;;;;12.50;9.00;;;16.60;99.90;;;;;;5089729;28;20093;-63
2021/06/28 05:46:17;;;;;;;12.95;9.10;;;16.60;99.90;;;;;;5082169;28;20044;-63
2021/06/28 05:48:43;;;;;;;9.38;7.93;;;16.70;99.90;;;;;;5089601;28;20123;-63
2021/06/28 05:51:09;;;;;;;8.82;7.90;;;16.80;99.90;;;;;;5089546;28;20072;-63
2021/06/28 05:53:35;;;;;;;10.63;8.57;;;16.80;99.90;;;;;;5088541;28;20070;-63
2021/06/28 05:56:02;;;;;;;9.30;7.97;;;16.80;99.90;;;;;;5088403;28;20043;-63
2021/06/28 05:58:28;;;;;;;14.25;9.20;;;16.90;99.90;;;;;;5084720;28;20045;-63
2021/06/28 06:00:56;;;;;;;16.10;8.80;;;16.90;99.90;;;;;;5085572;28;20055;-63
2021/06/28 06:03:22;;;;;;;10.55;7.80;;;17.00;99.90;;;;;;5087214;28;20123;-63
2021/06/28 06:05:49;;;;;;;9.27;8.23;;;17.10;99.90;;;;;;5084458;28;20101;-63
2021/06/28 06:08:15;;;;;;;11.13;8.05;;;17.10;99.90;;;;;;5089933;28;20462;-63
2021/06/28 06:10:41;;;;;;;10.23;8.25;;;17.20;99.90;;;;;;5082972;28;20468;-63
2021/06/28 06:13:06;;;;;;;11.60;8.68;;;17.30;99.90;;;;;;5072305;28;20040;-63
2021/06/28 06:15:32;;;;;;;8.23;7.40;;;17.40;99.90;;;;;;5068346;28;21716;-63
2021/06/28 06:17:58;;;;;;;10.88;7.63;;;17.50;99.90;;;;;;5068206;28;20048;-63
2021/06/28 06:20:24;;;;;;;9.55;7.45;;;17.60;99.90;;;;;;5068636;28;20086;-63
2021/06/28 06:22:52;;;;;;;10.48;7.28;;;17.80;99.90;;;;;;5068571;28;20539;-63
2021/06/28 06:25:18;;;;;;;8.45;6.93;;;18.00;99.90;;;;;;5069048;28;20050;-63
2021/06/28 06:27:45;;;;;;;8.25;7.45;;;18.20;99.90;;;;;;5068305;28;20137;-63
2021/06/28 06:30:11;;;;;;;7.88;7.10;;;18.60;99.90;;;;;;5069097;28;21936;-63
2021/06/28 06:32:37;;;;;;;7.05;6.50;;;18.90;99.90;;;;;;5067168;28;20043;-63
2021/06/28 06:35:04;;;;;;;8.90;7.15;;;19.20;99.90;;;;;;5068485;28;20079;-63
2021/06/28 06:37:31;;;;;;;8.50;7.55;;;19.50;99.90;;;;;;5068144;28;20051;-63
2021/06/28 06:39:58;;;;;;;7.45;6.70;;;19.80;99.90;;;;;;5067728;28;20040;-63
2021/06/28 06:42:24;;;;;;;8.93;7.05;;;20.10;99.90;;;;;;5068619;28;20042;-63
2021/06/28 06:44:49;;;;;;;7.22;6.53;;;20.40;99.90;;;;;;5068314;28;20374;-63
2021/06/28 06:47:15;;;;;;;8.57;6.82;;;20.70;99.90;;;;;;5069358;28;20055;-63
2021/06/28 06:49:42;;;;;;;8.40;6.65;;;20.80;99.90;;;;;;5068629;28;20046;-64
2021/06/28 06:52:09;;;;;;;8.93;6.80;;;20.80;99.90;;;;;;5068242;28;20081;-63
2021/06/28 06:54:35;;;;;;;6.75;6.13;;;20.90;99.90;;;;;;5069090;28;20051;-63
2021/06/28 06:57:02;;;;;;;7.85;7.10;;;21.10;99.90;;;;;;5068030;28;20044;-63
2021/06/28 06:59:28;;;;;;;8.50;7.13;;;21.20;99.90;;;;;;5068270;28;20352;-63
2021/06/28 07:01:54;;;;;;;7.38;6.68;;;21.50;99.90;;;;;;5065866;28;20048;-63
2021/06/28 07:04:20;;;;;;;6.95;6.35;;;21.80;99.90;;;;;;5067529;28;20043;-64
2021/06/28 07:06:46;;;;;;;6.80;5.80;;;22.00;99.80;;;;;;5067790;28;20040;-64
2021/06/28 07:09:12;;;;;;;8.93;6.50;;;22.30;99.40;;;;;;5068533;28;20032;-64
2021/06/28 07:11:38;;;;;;;7.03;6.32;;;22.50;98.80;;;;;;5066269;28;20051;-64
2021/06/28 07:14:04;;;;;;;7.13;6.43;;;22.80;98.50;;;;;;5070902;28;20040;-64
2021/06/28 07:16:30;;;;;;;7.40;6.70;;;23.00;97.80;;;;;;5069643;28;20044;-63
2021/06/28 07:19:02;;;;;;;6.55;5.95;;;23.10;97.70;;;;;;5068427;28;20390;-64
2021/06/28 07:21:28;;;;;;;9.43;6.65;;;23.30;96.90;;;;;;5067149;28;20118;-64
2021/06/28 07:23:56;;;;;;;8.82;6.47;;;23.50;97.00;;;;;;5066942;28;20494;-64
2021/06/28 07:26:25;;;;;;;8.30;7.10;;;23.60;96.40;;;;;;5066865;28;20047;-64
2021/06/28 07:28:52;;;;;;;9.23;5.75;;;23.60;96.00;;;;;;5069299;28;20052;-64
2021/06/28 07:31:19;;;;;;;8.23;6.35;;;23.60;96.10;;;;;;5068754;28;20233;-64
2021/06/28 07:33:49;;;;;;;7.30;6.32;;;23.70;96.00;;;;;;5066728;28;20040;-64
2021/06/28 07:36:15;;;;;;;7.88;6.05;;;23.80;96.20;;;;;;5066177;28;20078;-64
2021/06/28 07:38:41;;;;;;;6.78;6.07;;;23.90;95.40;;;;;;5068067;28;20131;-64
2021/06/28 07:41:08;;;;;;;7.00;6.38;;;24.10;95.60;;;;;;5066417;28;20142;-64
2021/06/28 07:43:34;;;;;;;7.80;5.68;;;24.20;95.00;;;;;;5068781;28;20044;-64
2021/06/28 07:46:01;;;;;;;7.15;6.50;;;24.40;94.80;;;;;;5067669;28;20043;-64
2021/06/28 07:48:29;;;;;;;6.40;5.63;;;24.50;94.90;;;;;;5067042;28;20044;-64
2021/06/28 07:50:55;;;;;;;7.57;5.57;;;24.60;94.50;;;;;;5068080;28;20036;-64
2021/06/28 07:53:21;;;;;;;6.07;5.47;;;24.60;94.40;;;;;;5066514;28;20048;-64
2021/06/28 07:55:48;;;;;;;10.15;6.72;;;24.80;94.80;;;;;;5065651;28;20141;-64
2021/06/28 07:58:14;;;;;;;6.20;5.45;;;24.90;94.20;;;;;;5067858;28;20416;-64
2021/06/28 08:00:40;;;;;;;6.40;5.25;;;25.00;93.90;;;;;;5067414;28;20047;-64
2021/06/28 08:03:07;;;;;;;9.43;6.20;;;25.10;93.80;;;;;;5065650;28;20040;-64
2021/06/28 08:05:34;;;;;;;6.85;5.05;;;25.20;93.40;;;;;;5068368;28;20050;-64
2021/06/28 08:08:00;;;;;;;5.25;4.82;;;25.30;93.70;;;;;;5069007;28;20124;-64
2021/06/28 08:10:26;;;;;;;9.18;5.47;;;25.40;93.30;;;;;;5065966;28;20122;-64
2021/06/28 08:12:52;;;;;;;5.88;5.38;;;25.30;92.70;;;;;;5068375;28;20074;-64
2021/06/28 08:15:20;;;;;;;6.10;5.47;;;25.40;93.30;;;;;;5067216;28;20048;-64
2021/06/28 08:17:48;;;;;;;7.10;4.82;;;25.40;93.60;;;;;;5065081;28;20048;-64
2021/06/28 08:20:14;;;;;;;7.90;4.90;;;25.50;92.90;;;;;;5064618;28;20043;-64
2021/06/28 08:22:41;;;;;;;6.10;5.18;;;25.50;92.40;;;;;;5064275;28;20056;-64
2021/06/28 08:25:08;;;;;;;6.25;5.32;;;25.30;91.90;;;;;;5065742;28;20384;-64
2021/06/28 08:27:34;;;;;;;8.45;7.47;;;25.30;92.20;;;;;;5066120;28;20048;-64
2021/06/28 08:30:00;;;;;;;9.00;6.32;;;25.30;93.50;;;;;;5065244;28;20049;-64
2021/06/28 08:32:26;;;;;;;6.28;5.68;;;25.40;93.70;;;;;;5064226;28;20225;-64
2021/06/28 08:34:54;;;;;;;10.27;5.57;;;25.50;93.60;;;;;;5063975;28;20044;-64
2021/06/28 08:37:20;;;;;;;7.38;5.93;;;25.50;93.90;;;;;;5065122;28;20044;-64
2021/06/28 08:39:46;;;;;;;5.80;5.22;;;25.60;93.70;;;;;;5064729;28;20044;-64
2021/06/28 08:42:12;;;;;;;7.25;6.50;;;25.70;93.40;;;;;;5067695;28;20044;-64
2021/06/28 08:44:38;;;;;;;6.53;5.60;;;25.70;93.20;;;;;;5091213;28;20061;-64
2021/06/28 08:47:05;;;;;;;8.23;5.72;;;25.80;93.10;;;;;;5084106;28;20157;-64
2021/06/28 08:49:34;;;;;;;5.72;4.82;;;25.80;92.80;;;;;;5081161;28;20481;-64
2021/06/28 08:52:00;;;;;;;5.60;4.72;;;25.90;92.80;;;;;;5083103;28;20292;-64
2021/06/28 08:54:26;;;;;;;5.32;4.93;;;26.00;92.90;;;;;;5081271;28;20028;-64
2021/06/28 08:56:52;;;;;;;6.25;4.70;;;26.00;92.20;;;;;;5083555;28;20054;-64
2021/06/28 08:59:17;;;;;;;7.07;4.97;;;26.10;92.00;;;;;;5073587;28;20036;-64
2021/06/28 09:01:44;;;;;;;8.25;4.45;;;26.10;91.70;;;;;;5067550;28;20044;-65
2021/06/28 09:04:10;;;;;;;6.03;5.22;;;26.20;91.70;;;;;;5067596;28;20051;-65
2021/06/28 09:06:37;;;;;;;7.88;5.95;;;26.30;92.60;;;;;;5069310;28;20036;-64
2021/06/28 09:09:09;;;;;;;6.00;5.40;;;26.60;92.50;;;;;;5067516;28;20097;-64
2021/06/28 09:11:36;;;;;;;6.65;5.53;;;26.60;91.60;;;;;;5068748;28;20102;-64
2021/06/28 09:14:05;;;;;;;5.47;4.53;;;26.80;91.80;;;;;;5070595;28;20029;-64
2021/06/28 09:16:31;;;;;;;6.55;5.28;;;26.80;91.50;;;;;;5068006;28;20108;-64
2021/06/28 09:19:05;;;;;;;6.82;4.20;;;26.80;91.40;;;;;;5083721;28;20478;-64
2021/06/28 09:21:32;;;;;;;8.25;6.22;;;26.90;92.20;;;;;;5082647;28;20193;-64
2021/06/28 09:24:00;;;;;;;8.70;6.20;;;26.90;91.40;;;;;;5082446;28;20043;-64
2021/06/28 09:26:34;;;;;;;5.50;5.00;;;26.90;91.00;;;;;;5070822;28;20036;-64
2021/06/28 09:29:03;;;;;;;8.15;5.82;;;26.90;90.50;;;;;;5069277;28;20051;-64
2021/06/28 09:31:48;;;;;;;6.25;5.28;;;26.90;90.30;;;;;;5065513;28;20040;-64
2021/06/28 09:34:17;;;;;;;6.18;5.68;;;26.90;90.80;;;;;;5067138;28;20137;-64
2021/06/28 09:36:48;;;;;;;8.75;5.07;;;27.00;90.90;;;;;;5066524;28;20036;-64
2021/06/28 09:39:32;;;;;;;6.40;5.80;;;27.20;90.60;;;;;;5065908;28;20032;-64
2021/06/28 09:42:26;;;;;;;6.30;5.27;;;27.30;91.30;;;;;;5067908;28;20089;-64
2021/06/28 09:44:59;;;;;;;5.85;5.15;;;27.30;90.30;;;;;;5068217;28;20055;-64
2021/06/28 09:47:26;;;;;;;7.32;6.07;;;27.30;90.00;;;;;;5069254;28;20044;-64
2021/06/28 09:49:58;;;;;;;6.22;5.68;;;27.40;88.90;;;;;;5067341;28;20048;-64
2021/06/28 09:52:39;;;;;;;7.07;6.18;;;27.60;90.90;;;;;;5065112;28;20086;-64
2021/06/28 09:55:23;;;;;;;6.50;5.90;;;27.70;91.10;;;;;;5069304;28;20040;-64
2021/06/28 09:58:10;;;;;;;8.85;5.35;;;27.70;90.60;;;;;;5068875;28;20044;-64
2021/06/28 10:00:45;;;;;;;5.97;5.57;;;27.70;89.30;;;;;;5067112;28;20043;-65
2021/06/28 10:03:45;;;;;;;6.53;5.78;;;27.70;89.00;;;;;;5066461;28;20075;-64
2021/06/28 10:08:46;;;;;;;7.25;6.28;;;27.80;87.60;;;;;;5068914;28;20028;-64
2021/06/28 10:11:17;;;;;;;6.95;5.50;;;27.90;84.10;;;;;;5068256;28;20055;-64
2021/06/28 10:13:47;;;;;;;6.07;5.47;;;28.00;85.40;;;;;;5069756;28;20047;-64
2021/06/28 10:16:13;;;;;;;6.07;5.13;;;28.10;86.60;;;;;;5067168;28;20086;-64
2021/06/28 10:18:39;;;;;;;6.35;5.47;;;28.10;87.00;;;;;;5067915;28;20045;-64
2021/06/28 10:21:08;;;;;;;8.48;4.97;;;28.00;87.00;;;;;;5066920;28;20085;-64
2021/06/28 10:23:36;;;;;;;5.10;4.70;;;27.90;86.10;;;;;;5068474;28;20048;-65
2021/06/28 10:26:03;;;;;;;9.45;6.10;;;28.00;87.30;;;;;;5067806;28;20127;-64
2021/06/28 10:28:30;;;;;;;5.25;4.85;;;28.10;87.50;;;;;;5067867;28;20040;-64
2021/06/28 10:30:56;;;;;;;5.38;4.97;;;28.10;89.50;;;;;;5066009;28;20039;-64
2021/06/28 10:33:23;;;;;;;5.03;4.45;;;28.10;89.10;;;;;;5066636;28;20048;-64
2021/06/28 10:35:49;;;;;;;6.28;5.68;;;28.20;87.10;;;;;;5067711;28;20035;-64
2021/06/28 10:38:15;;;;;;;5.43;4.93;;;28.20;85.30;;;;;;5067673;28;20033;-64
2021/06/28 10:40:47;;;;;;;5.15;4.75;;;28.20;86.40;;;;;;5067990;28;20040;-64
2021/06/28 10:43:28;;;;;;;5.18;4.47;;;28.30;85.60;;;;;;5066310;28;20044;-64
2021/06/28 10:45:55;;;;;;;4.82;4.43;;;28.50;85.00;;;;;;5082356;28;20428;-64
2021/06/28 10:48:24;;;;;;;6.57;4.68;;;28.70;83.30;;;;;;5069181;28;20032;-64
2021/06/28 10:51:01;;;;;;;4.80;4.25;;;28.80;82.80;;;;;;5069025;28;20490;-64
2021/06/28 10:53:33;;;;;;;5.28;4.88;;;28.90;83.90;;;;;;5069989;28;20387;-64
2021/06/28 10:56:48;;;;;;;7.35;4.40;;;29.10;84.00;;;;;;5068583;28;20035;-64
2021/06/28 10:59:17;;;;;;;6.05;4.80;;;29.00;82.50;;;;;;5061426;28;20067;-64
2021/06/28 11:01:45;;;;;;;5.03;4.63;;;28.90;83.80;;;;;;5073166;28;20040;-64
2021/06/28 11:04:24;;;;;;;8.95;6.20;;;28.90;86.10;;;;;;5086603;28;20035;-64
2021/06/28 11:06:58;;;;;;;8.63;5.03;;;28.80;84.90;;;;;;5072470;28;20096;-64
2021/06/28 11:09:39;;;;;;;6.00;5.50;;;28.80;86.40;;;;;;5068055;28;20033;-64
2021/06/28 11:12:25;;;;;;;10.55;5.65;;;28.90;86.80;;;;;;5070500;28;20048;-65
2021/06/28 11:15:08;;;;;;;5.85;5.32;;;28.80;85.60;;;;;;5067781;28;20052;-64
2021/06/28 11:17:54;;;;;;;5.47;4.97;;;28.90;83.70;;;;;;5067956;28;20043;-64
2021/06/28 11:20:37;;;;;;;7.43;6.13;;;28.90;87.50;;;;;;5068144;28;20040;-64
2021/06/28 11:23:14;;;;;;;6.18;5.68;;;29.00;89.00;;;;;;5067115;28;20044;-64
2021/06/28 11:25:44;;;;;;;5.13;4.72;;;29.10;86.70;;;;;;5066629;28;20047;-65
2021/06/28 11:28:13;;;;;;;5.20;4.72;;;29.10;86.80;;;;;;5066848;28;20195;-65
2021/06/28 11:30:49;;;;;;;7.57;5.97;;;29.00;85.30;;;;;;5067184;28;21716;-65
2021/06/28 11:33:16;;;;;;;5.63;4.70;;;29.00;83.00;;;;;;5066768;28;20068;-65
2021/06/28 11:35:46;;;;;;;6.40;5.55;;;29.10;85.00;;;;;;5066878;28;20052;-64
2021/06/28 11:38:17;;;;;;;6.28;5.78;;;29.10;83.20;;;;;;5066113;28;20036;-65
2021/06/28 11:40:46;;;;;;;10.35;6.07;;;29.00;84.40;;;;;;5072010;28;20490;-65
2021/06/28 11:43:12;;;;;;;5.68;5.28;;;28.90;84.40;;;;;;5082034;28;20397;-65
2021/06/28 11:45:50;;;;;;;5.82;5.32;;;28.90;85.00;;;;;;5066281;28;20040;-64
2021/06/28 11:48:39;;;;;;;6.20;5.18;;;29.10;86.50;;;;;;5065834;28;20417;-64
2021/06/28 11:51:12;;;;;;;4.72;4.30;;;29.20;79.80;;;;;;5067080;28;20120;-65
2021/06/28 11:53:40;;;;;;;7.30;5.10;;;29.10;79.40;;;;;;5066357;28;20040;-64
2021/06/28 11:56:18;;;;;;;5.90;4.97;;;28.90;81.20;;;;;;5067154;28;20040;-65
2021/06/28 11:58:54;;;;;;;5.90;4.85;;;28.70;82.10;;;;;;5064262;28;20037;-65
2021/06/28 12:01:22;;;;;;;4.68;4.35;;;28.50;82.20;;;;;;5066410;28;20044;-64
2021/06/28 12:03:48;;;;;;;7.78;4.10;;;28.40;84.30;;;;;;5065917;28;20867;-65
2021/06/28 12:06:13;;;;;;;5.38;4.88;;;28.20;86.10;;;;;;5066398;28;20036;-64
2021/06/28 12:08:39;;;;;;;4.95;4.55;;;28.10;86.50;;;;;;5066363;28;21090;-64
2021/06/28 12:11:06;;;;;;;4.75;4.07;;;28.00;85.50;;;;;;5069098;28;20119;-64
2021/06/28 12:13:37;;;;;;;4.90;4.50;;;27.90;85.20;;;;;;5065611;28;20040;-64
2021/06/28 12:16:17;;;;;;;6.97;4.05;;;27.80;86.50;;;;;;5070854;28;20043;-64
2021/06/28 12:18:43;;;;;;;8.70;5.80;;;27.80;88.40;;;;;;5071908;28;20145;-65
2021/06/28 12:21:08;;;;;;;5.15;4.38;;;27.70;86.70;;;;;;5070511;28;20126;-64
2021/06/28 12:23:34;;;;;;;9.52;4.65;;;27.70;88.10;;;;;;5070787;28;20355;-64
2021/06/28 12:26:10;;;;;;;7.18;4.63;;;27.60;88.80;;;;;;5070966;28;20074;-64
2021/06/28 12:28:37;;;;;;;5.40;5.00;;;27.50;89.70;;;;;;5068681;28;20089;-64
2021/06/28 12:31:15;;;;;;;5.63;4.63;;;27.40;90.00;;;;;;5067241;28;20123;-64
2021/06/28 12:33:41;;;;;;;5.43;4.95;;;27.30;90.30;;;;;;5071763;28;20798;-64
2021/06/28 12:36:07;;;;;;;9.43;4.63;;;27.40;90.30;;;;;;5070348;28;20044;-64
2021/06/28 12:38:33;;;;;;;5.40;4.50;;;27.50;91.30;;;;;;5072326;28;20043;-64
2021/06/28 12:40:59;;;;;;;4.97;4.40;;;27.70;90.60;;;;;;5081797;28;20032;-65
2021/06/28 12:43:26;;;;;;;4.95;4.65;;;27.80;88.80;;;;;;5083604;28;20052;-64
2021/06/28 12:45:54;;;;;;;5.80;4.53;;;27.80;88.90;;;;;;5080366;28;20056;-64
2021/06/28 12:48:21;;;;;;;5.68;5.07;;;27.70;89.40;;;;;;5085034;28;20448;-64
2021/06/28 12:50:57;;;;;;;6.45;4.88;;;27.60;89.30;;;;;;5084585;28;20048;-63